.
WxDataArchive / Data Records for 2007-07-12
2007-07-11 July 2007 2007-07-13

Data Records for Thursday, 12 July 2007

Time	Temp	Chill	HIndex	Humid	Dewpt	 Wind 	HiWind	WindDir	Rain 	Barom 
-----	----	-----	------	-----	-----	------	------	-------	-----	----- 
00:00	58.7	58.7	58.7	72	49.7	0	0	---	0.00	29.920 
00:05	58.6	58.6	58.6	73	50.0	0	0	---	0.00	29.920 
00:10	58.4	58.4	58.4	73	49.8	0	0	---	0.00	29.920 
00:15	58.3	58.3	58.3	74	50.0	0	0	---	0.00	29.920 
00:20	58.3	58.3	58.3	74	50.0	0	0	---	0.00	29.919 
00:25	58.1	58.1	58.1	74	49.9	0	0	---	0.00	29.919 
00:30	58.0	58.0	58.0	74	49.8	0	0	---	0.00	29.920 
00:35	58.1	58.1	58.1	74	49.9	0	0	---	0.00	29.920 
00:40	58.3	58.3	58.3	73	49.7	0	1	315	0.00	29.920 
00:45	58.4	58.4	58.4	72	49.4	0	1	---	0.00	29.919 
00:50	58.6	58.6	58.6	71	49.2	0	0	---	0.00	29.918 
00:55	58.7	58.7	58.7	71	49.3	0	0	---	0.00	29.917 
01:00	58.9	58.9	58.9	70	49.1	0	0	---	0.00	29.917 
01:05	59.2	59.2	59.2	69	49.0	0	0	---	0.00	29.915 
01:10	59.5	59.5	59.5	68	48.9	0	1	315	0.00	29.915 
01:15	59.9	59.9	59.9	67	48.9	0	1	315	0.00	29.913 
01:20	60.4	60.4	60.4	65	48.6	0	1	292	0.00	29.913 
01:25	60.9	60.9	60.9	64	48.6	0	1	270	0.00	29.907 
01:30	61.0	61.0	61.0	64	48.7	0	1	270	0.00	29.903 
01:35	61.2	61.2	61.2	63	48.5	0	3	270	0.00	29.903 
01:40	61.3	61.3	61.3	62	48.2	0	1	248	0.00	29.903 
01:45	61.5	61.5	61.5	62	48.4	0	2	248	0.00	29.902 
01:50	61.6	61.6	61.6	61	48.0	0	2	248	0.00	29.902 
01:55	61.8	61.8	61.8	61	48.2	0	1	248	0.00	29.901 
02:00	62.0	62.0	62.0	61	48.4	0	1	248	0.00	29.901 
02:05	62.0	62.0	62.0	61	48.4	0	2	248	0.00	29.899 
02:10	62.1	62.1	62.1	61	48.5	0	1	248	0.00	29.897 
02:15	62.3	62.3	62.3	61	48.7	0	3	248	0.00	29.897 
02:20	62.4	62.4	62.4	61	48.8	0	1	248	0.00	29.896 
02:25	62.4	62.4	62.4	62	49.2	0	1	248	0.00	29.896 
02:30	62.3	62.3	62.3	62	49.1	0	1	248	0.00	29.893 
02:35	62.1	62.1	62.1	62	48.9	0	1	248	0.00	29.891 
02:40	62.1	62.1	62.1	63	49.3	0	0	---	0.00	29.888 
02:45	61.8	61.8	61.8	63	49.1	0	1	248	0.00	29.888 
02:50	61.6	61.6	61.6	64	49.3	0	1	248	0.00	29.888 
02:55	61.5	61.5	61.5	65	49.6	0	1	248	0.00	29.886 
03:00	61.3	61.3	61.3	66	49.8	0	1	248	0.00	29.889 
03:05	61.2	61.2	61.2	66	49.7	0	1	248	0.00	29.888 
03:10	61.2	61.2	61.2	67	50.2	0	1	248	0.00	29.887 
03:15	61.2	61.2	61.2	68	50.5	0	1	248	0.00	29.887 
03:20	61.2	61.2	61.2	68	50.5	0	0	---	0.00	29.889 
03:25	61.0	61.0	61.0	68	50.4	0	2	248	0.00	29.890 
03:30	60.9	60.9	60.9	69	50.7	0	1	248	0.00	29.890 
03:35	60.7	60.7	60.7	69	50.5	0	1	248	0.00	29.890 
03:40	60.7	60.7	60.7	70	50.9	0	2	248	0.00	29.891 
03:45	60.5	60.5	60.5	70	50.7	0	1	248	0.00	29.891 
03:50	60.7	60.7	60.7	71	51.2	0	1	248	0.00	29.887 
03:55	60.7	60.7	60.7	71	51.2	0	1	248	0.00	29.886 
04:00	60.9	60.9	60.9	71	51.4	0	1	248	0.00	29.886 
04:05	60.9	60.9	60.9	72	51.8	0	3	248	0.00	29.886 
04:10	61.0	61.0	61.0	72	51.9	1	2	248	0.00	29.886 
04:15	61.2	61.2	61.2	72	52.1	0	3	248	0.00	29.885 
04:20	61.3	61.3	61.3	72	52.2	0	2	248	0.00	29.885 
04:25	61.3	61.3	61.3	71	51.8	1	3	248	0.00	29.885 
04:30	61.3	61.3	61.3	72	52.2	1	4	225	0.00	29.886 
04:35	61.3	61.3	61.3	72	52.2	1	3	225	0.00	29.887 
04:40	61.3	61.3	61.3	72	52.2	0	2	270	0.00	29.887 
04:45	61.2	61.2	61.2	73	52.5	0	2	270	0.00	29.886 
04:50	61.0	61.0	61.0	73	52.3	0	1	270	0.00	29.886 
04:55	60.9	60.9	60.9	73	52.2	0	2	270	0.00	29.887 
05:00	60.7	60.7	60.7	74	52.4	0	1	270	0.00	29.886 
05:05	60.5	60.5	60.5	74	52.2	0	1	270	0.00	29.889 
05:10	60.4	60.4	60.4	75	52.4	0	1	270	0.00	29.891 
05:15	60.2	60.2	60.2	76	52.6	0	2	270	0.00	29.890 
05:20	60.1	60.1	60.1	76	52.5	0	2	270	0.00	29.890 
05:25	60.1	60.1	60.1	77	52.9	0	3	248	0.00	29.890 
05:30	60.1	60.1	60.1	77	52.9	0	2	248	0.00	29.892 
05:35	60.1	60.1	60.1	77	52.9	0	1	248	0.00	29.893 
05:40	59.9	59.9	59.9	78	53.0	0	2	248	0.00	29.892 
05:45	59.9	59.9	59.9	78	53.0	0	1	248	0.00	29.890 
05:50	60.1	60.1	60.1	78	53.2	0	2	248	0.00	29.890 
05:55	60.2	60.2	60.2	78	53.3	0	2	225	0.00	29.893 
06:00	60.2	60.2	60.2	78	53.3	0	2	225	0.00	29.894 
06:05	60.4	60.4	60.4	78	53.5	0	2	225	0.00	29.895 
06:10	60.7	60.7	60.7	78	53.8	1	3	248	0.00	29.894 
06:15	60.9	60.9	60.9	77	53.6	0	2	248	0.00	29.891 
06:20	61.2	61.2	61.2	77	53.9	0	2	248	0.00	29.890 
06:25	61.3	61.3	61.3	77	54.0	0	2	248	0.00	29.890 
06:30	61.8	61.8	61.8	76	54.1	1	2	248	0.00	29.891 
06:35	62.3	62.3	62.3	75	54.3	1	2	248	0.00	29.894 
06:40	62.6	62.6	62.6	74	54.2	0	2	248	0.00	29.893 
06:45	62.9	62.9	62.9	74	54.5	1	3	248	0.00	29.893 
06:50	63.2	63.2	63.2	73	54.4	1	2	248	0.00	29.893 
06:55	63.7	63.7	63.7	72	54.5	1	2	248	0.00	29.891 
07:00	64.2	64.2	64.2	71	54.6	1	2	270	0.00	29.889 
07:05	64.3	64.3	64.3	70	54.3	1	3	248	0.00	29.891 
07:10	64.7	64.7	64.7	70	54.7	1	2	248	0.00	29.890 
07:15	65.2	65.2	65.2	70	55.2	1	2	248	0.00	29.890 
07:20	65.6	65.6	65.6	69	55.1	1	3	225	0.00	29.891 
07:25	65.8	65.8	65.8	67	54.5	1	3	225	0.00	29.895 
07:30	66.3	66.3	66.3	67	55.0	1	3	248	0.00	29.897 
07:35	66.8	66.8	66.8	65	54.6	1	3	248	0.00	29.900 
07:40	67.1	67.1	67.1	63	54.1	1	3	248	0.00	29.899 
07:45	67.3	67.3	67.3	64	54.7	1	4	292	0.00	29.900 
07:50	67.6	67.6	67.6	62	54.1	1	3	248	0.00	29.899 
07:55	67.9	67.9	67.9	61	53.9	2	4	248	0.00	29.899 
08:00	68.1	68.1	68.1	62	54.6	1	4	270	0.00	29.900 
08:05	68.8	68.8	68.8	59	53.9	1	3	270	0.00	29.905 
08:10	69.1	69.1	69.1	60	54.6	1	2	270	0.00	29.905 
08:15	69.8	69.8	69.8	58	54.3	1	3	248	0.00	29.905 
08:20	70.1	70.1	70.1	57	54.1	1	3	248	0.00	29.904 
08:25	70.6	70.6	70.6	56	54.1	1	3	248	0.00	29.903 
08:30	70.8	70.8	70.8	55	53.8	1	4	292	0.00	29.902 
08:35	70.9	70.9	70.9	52	52.4	2	4	315	0.00	29.902 
08:40	71.1	71.1	71.1	54	53.6	2	3	292	0.00	29.903 
08:45	71.8	71.8	71.8	55	54.7	1	4	248	0.00	29.903 
08:50	72.1	72.1	72.1	52	53.5	2	5	248	0.00	29.903 
08:55	72.3	72.3	72.3	51	53.1	2	4	248	0.00	29.903 
09:00	72.7	72.7	72.7	50	53.0	3	5	270	0.00	29.902 
09:05	73.2	73.2	73.2	50	53.4	1	3	270	0.00	29.905 
09:10	73.5	73.5	73.5	47	52.0	2	5	248	0.00	29.903 
09:15	73.9	73.9	73.9	48	53.0	2	4	248	0.00	29.904 
09:20	74.2	74.2	74.2	45	51.5	3	5	270	0.00	29.905 
09:25	74.0	74.0	74.0	45	51.3	3	5	270	0.00	29.905 
09:30	74.2	74.2	74.2	46	52.1	3	6	270	0.00	29.906 
09:35	74.4	74.4	74.4	43	50.4	2	5	315	0.00	29.906 
09:40	75.1	75.1	77.6	44	51.7	2	4	270	0.00	29.904 
09:45	75.1	75.1	77.6	42	50.4	3	5	270	0.00	29.903 
09:50	75.3	75.3	77.7	43	51.2	2	5	270	0.00	29.903 
09:55	74.9	74.9	74.9	43	50.9	3	7	292	0.00	29.902 
10:00	75.1	75.1	77.6	41	49.8	3	7	270	0.00	29.903 
10:05	75.6	75.6	77.7	41	50.2	3	5	270	0.00	29.904 
10:10	76.0	76.0	77.8	40	49.9	3	4	270	0.00	29.904 
10:15	75.8	75.8	77.8	41	50.4	3	7	315	0.00	29.903 
10:20	76.1	76.1	77.9	40	50.0	3	5	292	0.00	29.905 
10:25	76.3	76.3	77.9	40	50.2	3	7	270	0.00	29.905 
10:30	76.3	76.3	77.9	40	50.2	3	5	315	0.00	29.903 
10:35	76.8	76.8	78.2	42	51.9	3	5	270	0.00	29.903 
10:40	76.7	76.7	78.0	37	48.4	3	6	270	0.00	29.902 
10:45	77.2	77.2	78.3	39	50.3	2	5	315	0.00	29.899 
10:50	77.6	77.6	78.4	38	50.0	3	6	270	0.00	29.898 
10:55	77.2	77.2	77.9	33	45.8	3	6	315	0.00	29.898 
11:00	76.5	76.5	77.8	35	46.8	4	10	270	0.00	29.903 
11:05	77.6	77.6	78.2	34	47.0	3	8	270	0.00	29.900 
11:10	77.9	77.9	78.2	32	45.6	4	10	270	0.00	29.902 
11:15	78.1	78.1	78.4	33	46.6	3	7	270	0.00	29.902 
11:20	77.7	77.7	78.2	33	46.3	4	12	270	0.00	29.902 
11:25	77.7	77.7	78.2	33	46.3	3	6	270	0.00	29.898 
11:30	78.1	78.1	78.4	33	46.6	4	7	270	0.00	29.901 
11:35	77.9	77.9	78.4	35	48.0	3	5	270	0.00	29.897 
11:40	78.1	78.1	78.4	34	47.4	4	7	270	0.00	29.899 
11:45	78.5	78.5	78.6	34	47.8	3	5	270	0.00	29.895 
11:50	77.7	77.7	78.1	32	45.5	4	6	292	0.00	29.901 
11:55	77.4	77.4	78.1	34	46.8	4	10	270	0.00	29.900 
12:00	78.3	78.3	78.5	33	46.8	3	9	270	0.00	29.896 
12:05	77.4	77.4	78.0	33	46.0	4	7	270	0.00	29.895 
12:10	77.7	77.7	78.2	33	46.3	4	7	270	0.00	29.892 
12:15	78.6	78.6	78.6	33	47.1	3	6	270	0.00	29.890 
12:20	78.6	78.6	78.7	35	48.6	3	9	270	0.00	29.889 
12:25	77.9	77.9	78.3	33	46.5	2	6	270	0.00	29.890 
12:30	78.3	78.3	78.3	31	45.2	3	6	270	0.00	29.888 
12:35	79.2	79.2	78.8	31	45.9	3	9	315	0.00	29.888 
12:40	78.5	78.5	78.4	30	44.5	4	6	292	0.00	29.887 
12:45	77.9	77.9	78.1	31	44.8	4	11	270	0.00	29.888 
12:50	77.6	77.6	78.0	31	44.5	3	6	315	0.00	29.888 
12:55	78.3	78.3	78.2	29	43.4	4	7	315	0.00	29.886 
13:00	78.5	78.5	78.2	28	42.7	3	9	292	0.00	29.884 
13:05	79.0	79.0	78.5	28	43.1	3	9	270	0.00	29.880 
13:10	79.0	79.0	78.4	27	42.1	3	6	315	0.00	29.882 
13:15	78.8	78.8	78.4	28	42.9	2	5	315	0.00	29.880 
13:20	78.8	78.8	78.3	27	42.0	4	8	315	0.00	29.879 
13:25	79.8	79.8	78.9	27	42.8	2	6	315	0.00	29.878 
13:30	80.3	80.3	79.2	27	43.2	3	7	292	0.00	29.873 
13:35	79.9	79.9	78.9	26	41.9	3	9	270	0.00	29.872 
13:40	80.3	80.3	79.2	27	43.2	4	9	270	0.00	29.873 
13:45	79.8	79.8	78.9	28	43.8	3	7	270	0.00	29.870 
13:50	79.8	79.8	78.9	28	43.8	4	10	270	0.00	29.873 
13:55	79.6	79.6	78.8	27	42.7	4	10	270	0.00	29.872 
14:00	79.9	79.9	78.8	25	40.9	4	7	270	0.00	29.869 
14:05	78.8	78.8	78.4	28	42.9	3	8	315	0.00	29.874 
14:10	79.0	79.0	78.4	27	42.1	2	5	292	0.00	29.874 
14:15	79.8	79.8	78.9	27	42.8	4	12	270	0.00	29.870 
14:20	79.8	79.8	78.9	27	42.8	3	6	315	0.00	29.872 
14:25	80.1	80.1	79.1	27	43.1	2	6	338	0.00	29.870 
14:30	80.9	80.9	79.5	27	43.8	3	6	270	0.00	29.868 
14:35	80.9	80.9	79.5	27	43.8	5	11	270	0.00	29.868 
14:40	80.9	80.9	79.6	28	44.7	4	9	248	0.00	29.868 
14:45	80.1	80.1	79.1	28	44.0	3	5	270	0.00	29.869 
14:50	80.7	80.7	79.4	27	43.6	3	6	270	0.00	29.868 
14:55	80.7	80.7	79.4	27	43.6	2	5	315	0.00	29.867 
15:00	80.3	80.3	79.2	28	44.2	4	7	248	0.00	29.870 
15:05	80.3	80.3	79.3	29	45.1	3	6	315	0.00	29.870 
15:10	79.6	79.6	79.0	30	45.4	3	6	315	0.00	29.868 
15:15	78.8	78.8	78.5	30	44.7	2	5	270	0.00	29.870 
15:20	78.1	78.1	78.2	30	44.1	3	6	270	0.00	29.872 
15:25	78.6	78.6	78.4	30	44.6	3	7	270	0.00	29.867 
15:30	78.6	78.6	78.5	31	45.4	3	6	292	0.00	29.863 
15:35	79.2	79.2	78.9	32	46.8	2	5	270	0.00	29.860 
15:40	79.4	79.4	78.9	31	46.1	3	9	315	0.00	29.860 
15:45	79.6	79.6	79.2	33	47.9	3	6	315	0.00	29.859 
15:50	79.6	79.6	79.0	30	45.4	3	7	315	0.00	29.858 
15:55	79.2	79.2	78.7	30	45.1	4	8	270	0.00	29.859 
16:00	79.6	79.6	79.0	31	46.3	4	8	270	0.00	29.856 
16:05	80.1	80.1	79.2	30	45.8	4	11	270	0.00	29.859 
16:10	80.1	80.1	79.3	31	46.7	3	6	315	0.00	29.856 
16:15	79.9	79.9	79.1	30	45.7	3	7	315	0.00	29.855 
16:20	80.1	80.1	79.2	29	44.9	4	7	315	0.00	29.853 
16:25	80.1	80.1	79.2	29	44.9	3	6	270	0.00	29.852 
16:30	80.5	80.5	79.4	29	45.3	3	6	270	0.00	29.851 
16:35	80.3	80.3	79.4	30	46.0	3	6	270	0.00	29.852 
16:40	80.1	80.1	79.3	31	46.7	4	7	292	0.00	29.853 
16:45	80.1	80.1	79.2	30	45.8	3	7	270	0.00	29.852 
16:50	79.2	79.2	78.9	32	46.8	3	6	270	0.00	29.852 
16:55	78.5	78.5	78.6	33	47.0	2	5	270	0.00	29.851 
17:00	77.9	77.9	78.3	34	47.2	2	5	270	0.00	29.853 
17:05	77.6	77.6	78.2	34	47.0	3	5	315	0.00	29.852 
17:10	77.4	77.4	78.1	35	47.6	1	5	292	0.00	29.852 
17:15	77.6	77.6	78.2	34	47.0	3	5	292	0.00	29.851 
17:20	78.6	78.6	78.6	33	47.1	2	4	315	0.00	29.848 
17:25	79.4	79.4	79.0	32	46.9	3	6	270	0.00	29.845 
17:30	78.5	78.5	78.5	32	46.2	3	6	270	0.00	29.843 
17:35	77.7	77.7	78.1	32	45.5	3	6	292	0.00	29.844 
17:40	78.1	78.1	78.4	33	46.6	2	6	270	0.00	29.846 
17:45	78.6	78.6	78.5	32	46.3	3	11	338	0.00	29.844 
17:50	78.3	78.3	78.5	33	46.8	3	6	270	0.00	29.845 
17:55	78.5	78.5	78.6	33	47.0	2	4	315	0.00	29.845 
18:00	78.3	78.3	78.4	32	46.0	2	5	315	0.00	29.844 
18:05	77.6	77.6	78.2	34	47.0	2	4	315	0.00	29.839 
18:10	77.4	77.4	78.1	34	46.8	2	4	315	0.00	29.842 
18:15	77.4	77.4	78.1	35	47.6	1	3	270	0.00	29.843 
18:20	77.2	77.2	78.0	34	46.6	2	5	315	0.00	29.845 
18:25	76.8	76.8	77.8	34	46.3	3	6	270	0.00	29.849 
18:30	76.7	76.7	77.8	34	46.2	2	5	270	0.00	29.850 
18:35	76.7	76.7	77.9	35	47.0	3	6	270	0.00	29.850 
18:40	76.5	76.5	77.9	37	48.3	3	6	270	0.00	29.853 
18:45	74.9	74.9	74.9	43	50.9	3	11	292	0.00	29.867 
18:50	72.0	72.0	72.0	43	48.3	4	8	315	0.00	29.871 
18:55	70.9	70.9	70.9	47	49.7	1	4	270	0.00	29.861 
19:00	70.8	70.8	70.8	48	50.1	0	2	270	0.00	29.858 
19:05	71.1	71.1	71.1	45	48.7	0	3	270	0.00	29.854 
19:10	71.5	71.5	71.5	45	49.0	0	1	270	0.00	29.855 
19:15	71.5	71.5	71.5	45	49.0	0	1	270	0.00	29.854 
19:20	71.5	71.5	71.5	45	49.0	0	0	---	0.00	29.854 
19:25	71.6	71.6	71.6	46	49.7	0	1	270	0.00	29.855 
19:30	71.6	71.6	71.6	46	49.7	0	1	270	0.00	29.853 
19:35	71.6	71.6	71.6	46	49.7	0	0	---	0.00	29.853 
19:40	71.5	71.5	71.5	46	49.6	0	1	270	0.00	29.853 
19:45	71.3	71.3	71.3	48	50.6	0	0	---	0.00	29.854 
19:50	70.9	70.9	70.9	50	51.3	0	0	---	0.00	29.855 
19:55	70.6	70.6	70.6	50	51.0	0	0	---	0.00	29.855 
20:00	70.3	70.3	70.3	50	50.8	0	0	---	0.00	29.855 
20:05	69.8	69.8	69.8	51	50.8	0	0	---	0.00	29.852 
20:10	69.3	69.3	69.3	52	50.9	0	0	---	0.00	29.853 
20:15	68.9	68.9	68.9	53	51.1	0	0	---	0.00	29.852 
20:20	68.4	68.4	68.4	54	51.1	0	0	---	0.00	29.854 
20:25	68.1	68.1	68.1	55	51.3	0	0	---	0.00	29.857 
20:30	67.8	67.8	67.8	56	51.5	0	0	---	0.00	29.860 
20:35	67.3	67.3	67.3	56	51.1	0	0	---	0.00	29.864 
20:40	66.9	66.9	66.9	58	51.6	0	0	---	0.00	29.866 
20:45	66.8	66.8	66.8	58	51.5	0	0	---	0.00	29.866 
20:50	66.4	66.4	66.4	59	51.6	0	0	---	0.00	29.870 
20:55	66.1	66.1	66.1	59	51.3	0	0	---	0.00	29.870 
21:00	66.0	66.0	66.0	60	51.7	0	0	---	0.00	29.870 
21:05	65.6	65.6	65.6	61	51.8	0	0	---	0.00	29.868 
21:10	65.3	65.3	65.3	62	51.9	0	0	---	0.00	29.866 
21:15	65.2	65.2	65.2	63	52.3	0	0	---	0.00	29.870 
21:20	65.0	65.0	65.0	63	52.1	0	0	---	0.00	29.873 
21:25	64.8	64.8	64.8	63	51.9	0	0	---	0.00	29.879 
21:30	64.7	64.7	64.7	64	52.2	0	0	---	0.00	29.880 
21:35	64.5	64.5	64.5	65	52.5	0	0	---	0.00	29.879 
21:40	64.5	64.5	64.5	65	52.5	0	0	---	0.00	29.874 
21:45	64.5	64.5	64.5	65	52.5	0	0	---	0.00	29.877 
21:50	64.8	64.8	64.8	66	53.2	0	1	270	0.00	29.884 
21:55	66.1	66.1	66.1	69	55.6	2	7	270	0.01	29.884 
22:00	65.3	65.3	65.3	73	56.4	3	6	270	0.00	29.900 
22:05	64.5	64.5	64.5	76	56.8	1	5	248	0.01	29.898 
22:10	64.0	64.0	64.0	79	57.4	0	1	248	0.01	29.897 
22:15	63.2	63.2	63.2	81	57.3	0	1	248	0.00	29.895 
22:20	62.7	62.7	62.7	82	57.1	0	0	---	0.00	29.889 
22:25	62.4	62.4	62.4	83	57.2	0	0	---	0.00	29.891 
22:30	62.1	62.1	62.1	84	57.2	0	0	---	0.00	29.889 
22:35	61.6	61.6	61.6	86	57.4	0	0	---	0.00	29.890 
22:40	61.5	61.5	61.5	87	57.6	0	0	---	0.00	29.892 
22:45	61.5	61.5	61.5	89	58.2	0	0	---	0.00	29.897 
22:50	61.5	61.5	61.5	90	58.5	0	0	---	0.00	29.898 
22:55	61.6	61.6	61.6	91	58.9	0	1	248	0.00	29.900 
23:00	61.8	61.8	61.8	92	59.4	1	4	248	0.01	29.917 
23:05	62.3	62.3	62.3	87	58.4	3	6	292	0.00	29.924 
23:10	62.3	62.3	62.3	85	57.7	2	5	315	0.01	29.927 
23:15	62.1	62.1	62.1	86	57.9	1	4	270	0.00	29.926 
23:20	62.0	62.0	62.0	86	57.8	0	2	292	0.01	29.912 
23:25	61.6	61.6	61.6	87	57.7	0	1	292	0.00	29.902 
23:30	61.6	61.6	61.6	88	58.0	0	1	292	0.00	29.898 
23:35	61.5	61.5	61.5	89	58.2	0	1	292	0.00	29.900 
23:40	61.3	61.3	61.3	90	58.3	0	0	---	0.00	29.900 
23:45	61.3	61.3	61.3	90	58.3	0	1	292	0.00	29.900 
23:50	61.2	61.2	61.2	91	58.5	0	1	292	0.00	29.900 
23:55	61.0	61.0	61.0	91	58.4	0	0	---	0.00	29.900 

CoCoRaHS
IN-AL-39
A2 Web Hosting
Creative Commons License
GoDaddy
Look for:

loaded 2017-10-17 09:11:39 • last modified 2010-11-18 10:43:29
Privacy PolicyDisclaimer
• wx.awcolley.com is powered by PmWiki v.2002016 •
• all content (unless otherwise noted) © 2017 A W Colley